createdAt,value
2019-06-10T00:02:05.839Z,76.31
2019-06-10T00:05:11.892Z,77.73
2019-06-10T00:08:17.051Z,77.79
2019-06-10T00:11:22.221Z,77.51
2019-06-10T00:14:27.377Z,77.73
2019-06-10T00:17:32.543Z,76.58
2019-06-10T00:20:37.786Z,76.93
2019-06-10T00:23:43.017Z,76.85
2019-06-10T00:26:48.280Z,79.62
2019-06-10T00:29:53.472Z,78.93
2019-06-10T00:32:58.650Z,78.83
2019-06-10T00:36:07.018Z,79.47
2019-06-10T00:39:13.333Z,79.85
2019-06-10T00:42:17.606Z,77.97
2019-06-10T00:45:22.748Z,76.33
2019-06-10T00:48:29.346Z,75.42
2019-06-10T00:51:34.772Z,75.78
2019-06-10T00:54:41.727Z,75.93
2019-06-10T00:57:46.804Z,76.25
2019-06-10T01:00:52.019Z,75.33
2019-06-10T01:03:57.186Z,75.78
2019-06-10T01:07:02.514Z,76.19
2019-06-10T01:10:08.915Z,76.73
2019-06-10T01:13:15.532Z,78.74
2019-06-10T01:16:21.700Z,79.30
2019-06-10T01:19:27.123Z,80.08
2019-06-10T01:22:32.264Z,81.26
2019-06-10T01:25:37.424Z,82.92
2019-06-10T01:28:43.589Z,83.82
2019-06-10T01:31:51.050Z,84.87
2019-06-10T01:34:55.652Z,85.99
2019-06-10T01:38:01.093Z,86.31
2019-06-10T01:41:06.273Z,87.25
2019-06-10T01:44:13.970Z,86.72
2019-06-10T01:47:18.277Z,87.84
2019-06-10T01:50:23.474Z,88.04
2019-06-10T01:53:31.196Z,87.24
2019-06-10T01:56:35.537Z,87.22
2019-06-10T01:59:41.307Z,87.99
2019-06-10T02:02:46.623Z,87.25
2019-06-10T02:05:51.850Z,88.77
2019-06-10T02:09:06.622Z,87.63
2019-06-10T02:12:14.602Z,88.71
2019-06-10T02:15:22.421Z,89.43
2019-06-10T02:18:26.228Z,88.88
2019-06-10T02:21:33.003Z,87.59
2019-06-10T02:24:38.167Z,87.46
2019-06-10T02:27:43.322Z,87.44
2019-06-10T02:30:51.835Z,86.53
2019-06-10T02:33:55.299Z,85.66
2019-06-10T02:37:04.333Z,86.30
2019-06-10T02:40:08.515Z,87.69
2019-06-10T02:43:19.890Z,88.35
2019-06-10T02:46:30.731Z,89.01
2019-06-10T02:49:50.735Z,89.89
2019-06-10T02:52:38.581Z,90.25
2019-06-10T02:55:43.516Z,91.02
2019-06-10T02:58:48.704Z,90.88
2019-06-10T03:01:53.870Z,91.16
2019-06-10T03:04:59.139Z,93.36
2019-06-10T03:08:04.341Z,92.03
2019-06-10T03:11:09.574Z,94.12
2019-06-10T03:14:15.715Z,93.35
2019-06-10T03:17:25.870Z,92.53
2019-06-10T03:20:32.037Z,93.09
2019-06-10T03:23:37.293Z,93.18
2019-06-10T03:26:42.888Z,93.00
2019-06-10T03:29:48.319Z,92.64
2019-06-10T03:32:55.623Z,93.28
2019-06-10T03:36:02.977Z,94.39
2019-06-10T03:39:08.662Z,93.87
2019-06-10T03:42:13.845Z,92.93
2019-06-10T03:45:19.277Z,92.84
2019-06-10T03:48:26.755Z,93.09
2019-06-10T03:51:33.362Z,93.52
2019-06-10T03:54:38.194Z,92.18
2019-06-10T03:57:43.364Z,91.38
2019-06-10T04:00:49.375Z,94.44
2019-06-10T04:03:55.630Z,92.93
2019-06-10T04:07:03.722Z,90.71
2019-06-10T04:10:08.474Z,91.28
2019-06-10T04:13:13.680Z,90.61
2019-06-10T04:16:19.676Z,90.56
2019-06-10T04:19:27.146Z,90.55
2019-06-10T04:22:32.944Z,90.61
2019-06-10T04:25:42.724Z,89.59
2019-06-10T04:28:48.064Z,86.27
2019-06-10T04:31:53.343Z,86.04
2019-06-10T04:34:58.542Z,87.67
2019-06-10T04:38:03.714Z,86.55
2019-06-10T04:41:08.909Z,88.12
2019-06-10T04:44:14.080Z,90.09
2019-06-10T04:47:19.204Z,90.42
2019-06-10T04:50:34.572Z,91.52
2019-06-10T04:53:32.916Z,90.69
2019-06-10T04:56:38.060Z,88.87
2019-06-10T04:59:43.215Z,89.58
2019-06-10T05:02:48.440Z,91.21
2019-06-10T05:05:53.644Z,92.05
2019-06-10T05:08:58.876Z,93.48
2019-06-10T05:12:04.072Z,93.39
2019-06-10T05:15:09.583Z,93.32
2019-06-10T05:18:14.703Z,93.82
2019-06-10T05:21:22.966Z,93.84
2019-06-10T05:24:29.549Z,91.87
2019-06-10T05:27:33.638Z,92.71
2019-06-10T05:30:38.774Z,92.90
2019-06-10T05:33:43.963Z,92.64
2019-06-10T05:36:49.140Z,91.53
2019-06-10T05:39:54.368Z,91.77
2019-06-10T05:43:02.442Z,89.79
2019-06-10T05:46:07.098Z,86.85
2019-06-10T05:49:12.629Z,90.06
2019-06-10T05:52:17.934Z,88.67
2019-06-10T05:55:24.346Z,86.09
2019-06-10T05:58:34.156Z,86.26
2019-06-10T06:01:38.672Z,81.26
2019-06-10T06:04:43.960Z,78.89
2019-06-10T06:08:01.340Z,77.35
2019-06-10T06:10:55.961Z,76.79
2019-06-10T06:14:02.684Z,78.89
2019-06-10T06:17:08.050Z,77.55
2019-06-10T06:20:13.555Z,74.10
2019-06-10T06:23:23.172Z,75.49
2019-06-10T06:26:28.460Z,77.56
2019-06-10T06:29:36.586Z,77.70
2019-06-10T06:32:43.625Z,71.31
2019-06-10T06:35:48.193Z,71.93
2019-06-10T06:38:53.380Z,67.85
2019-06-10T06:41:58.580Z,68.47
2019-06-10T06:45:03.963Z,67.62
2019-06-10T06:48:09.153Z,65.39
2019-06-10T06:51:14.353Z,66.74
2019-06-10T06:54:19.559Z,66.00
2019-06-10T06:57:24.759Z,65.53
2019-06-10T07:00:53.045Z,60.57
2019-06-10T07:03:45.143Z,66.09
2019-06-10T07:06:55.444Z,66.57
2019-06-10T07:10:03.429Z,67.41
2019-06-10T07:13:08.490Z,63.43
2019-06-10T07:16:13.681Z,66.19
2019-06-10T07:19:22.506Z,65.61
2019-06-10T07:22:26.895Z,65.61
2019-06-10T07:25:34.201Z,67.02
2019-06-10T07:28:40.813Z,55.67
2019-06-10T07:31:49.981Z,59.48
2019-06-10T07:34:52.724Z,57.82
2019-06-10T07:37:57.949Z,57.94
2019-06-10T07:41:03.195Z,64.16
2019-06-10T07:44:08.671Z,52.05
2019-06-10T07:47:13.863Z,54.44
2019-06-10T07:50:19.911Z,53.84
2019-06-10T07:53:25.062Z,58.85
2019-06-10T07:56:36.285Z,52.36
2019-06-10T07:59:37.386Z,53.40
2019-06-10T08:02:44.612Z,49.94
2019-06-10T08:05:52.364Z,54.66
2019-06-10T08:08:57.586Z,57.69
2019-06-10T08:12:05.823Z,53.60
2019-06-10T08:15:12.342Z,57.81
2019-06-10T08:18:16.897Z,62.85
2019-06-10T08:21:22.878Z,55.69
2019-06-10T08:24:29.566Z,61.35
2019-06-10T08:27:34.811Z,57.91
2019-06-10T08:30:42.617Z,55.83
2019-06-10T08:33:48.796Z,54.84
2019-06-10T08:36:54.529Z,55.51
2019-06-10T08:39:59.985Z,61.06
2019-06-10T08:43:05.686Z,55.88
2019-06-10T08:46:13.240Z,56.88
2019-06-10T08:49:18.372Z,56.30
2019-06-10T08:52:23.895Z,55.61
2019-06-10T08:55:29.187Z,59.07
2019-06-10T08:58:34.370Z,57.86
2019-06-10T09:01:41.882Z,59.76
2019-06-10T09:04:50.071Z,56.48
2019-06-10T09:07:54.465Z,56.33
2019-06-10T09:11:02.092Z,55.80
2019-06-10T09:14:07.280Z,55.19
2019-06-10T09:17:13.320Z,54.69
2019-06-10T09:20:19.326Z,56.24
2019-06-10T09:23:25.603Z,56.72
2019-06-10T09:26:33.671Z,58.97
2019-06-10T09:29:39.572Z,57.02
2019-06-10T09:32:48.516Z,54.99
2019-06-10T09:35:54.845Z,58.30
2019-06-10T09:38:58.639Z,60.26
2019-06-10T09:42:06.602Z,57.00
2019-06-10T09:45:13.060Z,55.25
2019-06-10T09:48:22.885Z,55.67
2019-06-10T09:51:27.705Z,53.83
2019-06-10T09:54:33.643Z,56.66
2019-06-10T09:57:38.975Z,54.44
2019-06-10T10:00:49.385Z,54.94
2019-06-10T10:03:59.239Z,55.52
2019-06-10T10:07:02.924Z,55.75
2019-06-10T10:10:09.580Z,53.70
2019-06-10T10:13:14.756Z,54.15
2019-06-10T10:16:22.297Z,54.70
2019-06-10T10:19:26.982Z,56.88
2019-06-10T10:22:34.067Z,55.95
2019-06-10T10:25:39.082Z,54.00
2019-06-10T10:28:46.186Z,55.04
2019-06-10T10:31:53.694Z,58.42
2019-06-10T10:34:58.075Z,58.28
2019-06-10T10:38:03.847Z,53.15
2019-06-10T10:41:09.256Z,53.76
2019-06-10T10:44:14.825Z,53.21
2019-06-10T10:47:20.147Z,50.47
2019-06-10T10:50:25.529Z,52.41
2019-06-10T10:53:32.728Z,52.48
2019-06-10T10:56:37.681Z,54.72
2019-06-10T10:59:43.600Z,52.06
2019-06-10T11:02:51.440Z,51.13
2019-06-10T11:06:00.678Z,54.42
2019-06-10T11:09:04.337Z,55.76
2019-06-10T11:12:12.697Z,51.53
2019-06-10T11:15:23.176Z,50.53
2019-06-10T11:18:28.603Z,52.06
2019-06-10T11:21:33.819Z,50.58
2019-06-10T11:24:42.234Z,47.33
2019-06-10T11:27:46.426Z,46.31
2019-06-10T11:30:55.431Z,48.20
2019-06-10T11:33:59.176Z,51.70
2019-06-10T11:37:04.578Z,51.12
2019-06-10T11:40:10.044Z,50.31
2019-06-10T11:43:15.246Z,55.13
2019-06-10T11:46:20.470Z,60.01
2019-06-10T11:49:25.627Z,58.92
2019-06-10T11:52:33.503Z,51.64
2019-06-10T11:55:38.842Z,50.56
2019-06-10T11:58:44.055Z,51.07
2019-06-10T12:01:51.434Z,49.48
2019-06-10T12:04:59.318Z,50.02
2019-06-10T12:08:04.174Z,53.54
2019-06-10T12:11:09.377Z,54.50
2019-06-10T12:14:14.982Z,57.28
2019-06-10T12:17:35.098Z,56.99
2019-06-10T12:20:28.542Z,56.47
2019-06-10T12:23:34.046Z,56.50
2019-06-10T12:26:43.244Z,55.51
2019-06-10T12:29:47.210Z,52.28
2019-06-10T12:32:55.649Z,53.43
2019-06-10T12:36:01.584Z,53.81
2019-06-10T12:39:10.933Z,52.55
2019-06-10T12:42:15.970Z,56.09
2019-06-10T12:45:23.333Z,52.88
2019-06-10T12:48:28.709Z,52.93
2019-06-10T12:51:33.870Z,53.73
2019-06-10T12:54:42.180Z,54.15
2019-06-10T12:57:46.393Z,50.72
2019-06-10T13:00:53.280Z,50.42
2019-06-10T13:03:59.469Z,47.40
2019-06-10T13:07:07.291Z,49.89
2019-06-10T13:10:13.112Z,51.33
2019-06-10T13:13:18.531Z,52.89
2019-06-10T13:16:23.813Z,52.50
2019-06-10T13:19:29.007Z,50.93
2019-06-10T13:22:34.240Z,51.59
2019-06-10T13:25:53.483Z,52.61
2019-06-10T13:28:46.287Z,53.27
2019-06-10T13:31:52.858Z,53.50
2019-06-10T13:34:58.446Z,53.54
2019-06-10T13:38:04.195Z,52.44
2019-06-10T13:41:10.617Z,55.83
2019-06-10T13:44:16.783Z,55.11
2019-06-10T13:47:25.978Z,54.12
2019-06-10T13:50:29.074Z,56.25
2019-06-10T13:53:34.393Z,57.40
2019-06-10T13:56:47.138Z,57.37
2019-06-10T13:59:46.793Z,56.27
2019-06-10T14:02:52.296Z,57.30
2019-06-10T14:06:01.771Z,54.25
2019-06-10T14:09:09.455Z,57.76
2019-06-10T14:12:13.439Z,60.16
2019-06-10T14:15:22.407Z,56.72
2019-06-10T14:18:27.001Z,55.30
2019-06-10T14:21:33.114Z,54.27
2019-06-10T14:24:38.493Z,55.46
2019-06-10T14:27:43.702Z,50.67
2019-06-10T14:30:48.988Z,53.28
2019-06-10T14:33:54.127Z,53.35
2019-06-10T14:36:59.339Z,55.57
2019-06-10T14:40:07.080Z,50.37
2019-06-10T14:43:13.509Z,54.38
2019-06-10T14:46:19.228Z,53.54
2019-06-10T14:49:24.423Z,52.95
2019-06-10T14:52:31.981Z,53.86
2019-06-10T14:55:36.602Z,56.52
2019-06-10T14:58:42.437Z,61.05
2019-06-10T15:01:47.756Z,62.21
2019-06-10T15:04:53.286Z,63.13
2019-06-10T15:07:58.704Z,65.96
2019-06-10T15:11:03.889Z,65.87
2019-06-10T15:14:09.891Z,69.24
2019-06-10T15:17:16.857Z,71.23
2019-06-10T15:20:23.421Z,71.92
2019-06-10T15:23:28.647Z,72.46
2019-06-10T15:26:33.798Z,69.73
2019-06-10T15:29:39.055Z,67.71
2019-06-10T15:32:44.240Z,69.21
2019-06-10T15:35:49.398Z,72.75
2019-06-10T15:38:54.570Z,72.27
2019-06-10T15:41:59.756Z,75.62
2019-06-10T15:45:05.265Z,77.53
2019-06-10T15:48:13.636Z,77.34
2019-06-10T15:51:19.874Z,80.83
2019-06-10T15:54:25.509Z,79.94
2019-06-10T15:57:40.617Z,77.90
2019-06-10T16:00:38.747Z,73.04
2019-06-10T16:03:43.903Z,68.85
2019-06-10T16:06:49.124Z,63.20
2019-06-10T16:09:54.714Z,68.02
2019-06-10T16:12:59.957Z,70.97
2019-06-10T16:16:05.188Z,75.20
2019-06-10T16:19:12.849Z,75.93
2019-06-10T16:22:17.467Z,80.05
2019-06-10T16:25:25.170Z,79.10
2019-06-10T16:28:29.673Z,87.60
2019-06-10T16:31:34.947Z,96.05
2019-06-10T16:34:40.088Z,98.58
2019-06-10T16:37:45.246Z,105.36
2019-06-10T16:40:53.594Z,107.54
2019-06-10T16:43:59.206Z,110.71
2019-06-10T16:47:04.508Z,111.86
2019-06-10T16:50:12.213Z,108.16
2019-06-10T16:53:17.998Z,108.71
2019-06-10T16:56:25.713Z,110.95
2019-06-10T16:59:30.842Z,112.95
2019-06-10T17:02:36.981Z,115.33
2019-06-10T17:05:42.676Z,115.64
2019-06-10T17:08:48.447Z,115.03
2019-06-10T17:11:53.680Z,114.95
2019-06-10T17:14:58.889Z,114.69
2019-06-10T17:18:04.270Z,115.15
2019-06-10T17:21:09.445Z,114.74
2019-06-10T17:24:14.655Z,114.05
2019-06-10T17:27:22.296Z,113.40
2019-06-10T17:30:27.254Z,113.24
2019-06-10T17:33:35.863Z,113.65
2019-06-10T17:36:42.551Z,114.29
2019-06-10T17:39:47.542Z,114.42
2019-06-10T17:42:53.336Z,113.89
2019-06-10T17:45:59.074Z,112.93
2019-06-10T17:49:04.446Z,113.87
2019-06-10T17:52:09.671Z,113.73
2019-06-10T17:55:14.972Z,112.55
2019-06-10T17:58:33.357Z,112.66
2019-06-10T18:01:27.237Z,111.63
2019-06-10T18:04:33.599Z,111.98
2019-06-10T18:07:39.022Z,112.04
2019-06-10T18:10:44.292Z,111.64
2019-06-10T18:13:49.475Z,112.39
2019-06-10T18:16:54.743Z,112.34
2019-06-10T18:20:02.640Z,112.58
2019-06-10T18:23:06.814Z,112.43
2019-06-10T18:26:12.445Z,111.55
2019-06-10T18:29:18.884Z,111.04
2019-06-10T18:32:25.385Z,110.21
2019-06-10T18:35:33.123Z,111.43
2019-06-10T18:38:37.723Z,111.93
2019-06-10T18:41:43.955Z,110.51
2019-06-10T18:44:52.218Z,111.32
2019-06-10T18:47:57.142Z,109.80
2019-06-10T18:51:02.308Z,106.33
2019-06-10T18:54:07.509Z,108.14
2019-06-10T18:57:12.683Z,107.77
2019-06-10T19:00:18.440Z,106.95
2019-06-10T19:03:23.684Z,107.00
2019-06-10T19:06:28.983Z,109.47
2019-06-10T19:09:37.318Z,107.61
2019-06-10T19:12:42.520Z,105.52
2019-06-10T19:15:47.884Z,106.40
2019-06-10T19:18:53.106Z,106.67
2019-06-10T19:22:05.334Z,107.72
2019-06-10T19:25:05.509Z,104.31
2019-06-10T19:28:12.263Z,104.08
2019-06-10T19:31:17.605Z,103.50
2019-06-10T19:34:22.802Z,106.29
2019-06-10T19:37:28.021Z,106.94
2019-06-10T19:40:35.082Z,110.37
2019-06-10T19:43:41.619Z,110.18
2019-06-10T19:46:47.122Z,109.86
2019-06-10T19:49:52.393Z,110.09
2019-06-10T19:52:57.595Z,109.81
2019-06-10T19:56:02.816Z,108.19
2019-06-10T19:59:08.108Z,108.64
2019-06-10T20:02:13.408Z,109.36
2019-06-10T20:05:18.737Z,111.49
2019-06-10T20:08:23.903Z,111.21
2019-06-10T20:11:29.212Z,111.90
2019-06-10T20:14:34.481Z,112.02
2019-06-10T20:17:41.644Z,111.35
2019-06-10T20:20:48.694Z,110.86
2019-06-10T20:23:53.849Z,110.12
2019-06-10T20:26:59.027Z,109.67
2019-06-10T20:30:20.560Z,109.07
2019-06-10T20:33:13.767Z,111.84
2019-06-10T20:36:25.638Z,112.60
2019-06-10T20:39:29.379Z,114.65
2019-06-10T20:42:33.359Z,114.86
2019-06-10T20:45:39.548Z,114.43
2019-06-10T20:48:47.172Z,115.37
2019-06-10T20:52:06.608Z,115.27
2019-06-10T20:55:03.094Z,115.90
2019-06-10T20:58:07.723Z,115.75
2019-06-10T21:01:12.950Z,116.38
2019-06-10T21:04:19.308Z,117.04
2019-06-10T21:07:25.995Z,117.37
2019-06-10T21:10:35.924Z,117.29
2019-06-10T21:13:45.861Z,116.14
2019-06-10T21:16:48.390Z,115.58
2019-06-10T21:19:53.888Z,114.71
2019-06-10T21:23:02.826Z,113.94
2019-06-10T21:26:07.148Z,113.40
2019-06-10T21:29:12.873Z,113.95
2019-06-10T21:32:18.170Z,113.59
2019-06-10T21:35:23.320Z,113.69
2019-06-10T21:38:28.517Z,113.40
2019-06-10T21:41:33.798Z,113.66
2019-06-10T21:44:38.999Z,114.32
2019-06-10T21:47:45.593Z,114.33
2019-06-10T21:50:54.617Z,114.61
2019-06-10T21:53:58.039Z,115.04
2019-06-10T21:57:03.293Z,115.43
2019-06-10T22:00:14.122Z,114.89
2019-06-10T22:03:23.168Z,114.92
2019-06-10T22:06:27.675Z,114.87
2019-06-10T22:09:32.889Z,115.15
2019-06-10T22:12:38.104Z,115.04
2019-06-10T22:15:44.243Z,115.48
2019-06-10T22:18:50.755Z,115.90
2019-06-10T22:21:56.772Z,115.80
2019-06-10T22:25:02.942Z,115.93
2019-06-10T22:28:13.076Z,116.89
2019-06-10T22:31:22.613Z,117.21
2019-06-10T22:34:22.842Z,117.68
2019-06-10T22:37:28.206Z,119.00
2019-06-10T22:40:33.388Z,119.00
2019-06-10T22:43:38.559Z,119.00
2019-06-10T22:46:43.888Z,119.00
2019-06-10T22:49:49.973Z,119.00
2019-06-10T22:52:57.388Z,119.00
2019-06-10T22:56:02.994Z,119.00
2019-06-10T22:59:08.349Z,119.00
2019-06-10T23:02:13.510Z,119.00
2019-06-10T23:05:18.780Z,119.00
2019-06-10T23:08:24.013Z,118.91
2019-06-10T23:11:29.184Z,119.00
2019-06-10T23:14:34.312Z,119.00
2019-06-10T23:17:39.443Z,119.00
2019-06-10T23:20:44.574Z,119.00
2019-06-10T23:23:52.234Z,119.00
2019-06-10T23:26:57.905Z,119.00
2019-06-10T23:30:11.213Z,119.00
2019-06-10T23:33:12.426Z,119.00
2019-06-10T23:36:17.523Z,119.00
2019-06-10T23:39:22.812Z,119.00
2019-06-10T23:42:28.090Z,119.00
2019-06-10T23:45:33.224Z,119.00
2019-06-10T23:48:38.405Z,119.00
2019-06-10T23:51:43.572Z,118.71
2019-06-10T23:54:48.760Z,118.81
2019-06-10T23:57:54.776Z,119.00
